createdAt,value
2018-09-14T00:00:04.944Z,10.83
2018-09-14T00:01:15.068Z,10.8
2018-09-14T00:02:24.929Z,10.83
2018-09-14T00:03:34.792Z,10.79
2018-09-14T00:04:44.701Z,10.83
2018-09-14T00:05:54.844Z,10.86
2018-09-14T00:07:04.416Z,10.8
2018-09-14T00:08:14.270Z,10.83
2018-09-14T00:09:23.843Z,10.86
2018-09-14T00:10:33.973Z,10.77
2018-09-14T00:11:43.825Z,10.72
2018-09-14T00:12:53.694Z,10.75
2018-09-14T00:14:03.552Z,10.79
2018-09-14T00:15:13.409Z,10.84
2018-09-14T00:16:23.038Z,10.83
2018-09-14T00:17:32.896Z,10.79
2018-09-14T00:18:42.475Z,10.76
2018-09-14T00:19:52.605Z,10.8
2018-09-14T00:21:02.469Z,10.86
2018-09-14T00:22:12.051Z,10.84
2018-09-14T00:23:21.627Z,10.77
2018-09-14T00:24:31.483Z,10.79
2018-09-14T00:25:41.340Z,10.69
2018-09-14T00:26:51.469Z,10.72
2018-09-14T00:28:01.097Z,10.75
2018-09-14T00:29:11.231Z,10.71
2018-09-14T00:30:21.089Z,10.67
2018-09-14T00:31:31.218Z,10.58
2018-09-14T00:32:41.071Z,10.59
2018-09-14T00:33:50.973Z,10.61
2018-09-14T00:35:01.092Z,10.58
2018-09-14T00:36:10.943Z,10.58
2018-09-14T00:37:21.075Z,10.61
2018-09-14T00:38:31.201Z,10.53
2018-09-14T00:39:41.381Z,10.53
2018-09-14T00:40:51.242Z,10.51
2018-09-14T00:42:01.380Z,10.55
2018-09-14T00:43:11.233Z,10.51
2018-09-14T00:44:21.363Z,10.42
2018-09-14T00:45:31.550Z,10.39
2018-09-14T00:46:41.401Z,10.48
2018-09-14T00:47:51.528Z,10.42
2018-09-14T00:49:01.656Z,10.39
2018-09-14T00:50:10.974Z,10.49
2018-09-14T00:51:21.151Z,10.48
2018-09-14T00:52:30.737Z,10.38
2018-09-14T00:53:40.877Z,10.41
2018-09-14T00:54:50.184Z,10.36
2018-09-14T00:56:00.034Z,10.43
2018-09-14T00:57:10.212Z,10.41
2018-09-14T00:58:20.068Z,10.38
2018-09-14T00:59:29.920Z,10.43
2018-09-14T01:00:40.045Z,10.34
2018-09-14T01:01:49.897Z,10.33
2018-09-14T01:02:59.808Z,10.38
2018-09-14T01:04:09.666Z,10.38
2018-09-14T01:05:19.518Z,10.39
2018-09-14T01:06:29.097Z,10.39
2018-09-14T01:07:39.278Z,10.34
2018-09-14T01:08:49.457Z,10.3
2018-09-14T01:09:59.032Z,10.33
2018-09-14T01:11:09.220Z,10.28
2018-09-14T01:12:19.340Z,10.28
2018-09-14T01:13:29.197Z,10.27
2018-09-14T01:14:39.381Z,10.23
2018-09-14T01:15:49.240Z,10.28
2018-09-14T01:16:59.368Z,10.24
2018-09-14T01:18:09.266Z,10.21
2018-09-14T01:19:19.394Z,10.25
2018-09-14T01:20:29.587Z,10.25
2018-09-14T01:21:39.715Z,10.23
2018-09-14T01:22:49.846Z,10.3
2018-09-14T01:23:59.985Z,10.28
2018-09-14T01:25:10.117Z,10.24
2018-09-14T01:26:20.018Z,10.23
2018-09-14T01:27:29.869Z,10.18
2018-09-14T01:28:39.993Z,10.2
2018-09-14T01:29:50.121Z,10.17
2018-09-14T01:30:59.977Z,10.09
2018-09-14T01:32:09.881Z,10.12
2018-09-14T01:33:19.460Z,10.2
2018-09-14T01:34:29.591Z,10.25
2018-09-14T01:35:39.714Z,10.24
2018-09-14T01:36:49.841Z,10.28
2018-09-14T01:37:59.741Z,10.28
2018-09-14T01:39:09.871Z,10.24
2018-09-14T01:40:19.732Z,10.24
2018-09-14T01:41:29.858Z,10.3
2018-09-14T01:42:39.990Z,10.24
2018-09-14T01:43:50.222Z,10.23
2018-09-14T01:45:00.083Z,10.18
2018-09-14T01:46:09.946Z,10.28
2018-09-14T01:47:19.836Z,10.24
2018-09-14T01:48:30.044Z,10.3
2018-09-14T01:49:40.023Z,10.27
2018-09-14T01:50:50.233Z,10.28
2018-09-14T01:52:00.446Z,10.27
2018-09-14T01:53:10.377Z,10.28
2018-09-14T01:54:20.589Z,10.21
2018-09-14T01:55:31.097Z,10.25
2018-09-14T01:56:41.025Z,10.23
2018-09-14T01:57:50.952Z,10.23
2018-09-14T01:59:00.889Z,10.33
2018-09-14T02:00:11.100Z,10.23
2018-09-14T02:01:20.799Z,10.36
2018-09-14T02:02:31.027Z,10.21
2018-09-14T02:03:41.236Z,10.34
2018-09-14T02:04:51.449Z,10.21
2018-09-14T02:06:01.657Z,10.3
2018-09-14T02:07:11.590Z,10.28
2018-09-14T02:08:21.239Z,10.25
2018-09-14T02:09:30.609Z,10.23
2018-09-14T02:10:40.815Z,10.24
2018-09-14T02:11:50.190Z,10.25
2018-09-14T02:13:00.450Z,10.2
2018-09-14T02:14:10.656Z,10.17
2018-09-14T02:15:20.864Z,10.12
2018-09-14T02:16:31.072Z,10.2
2018-09-14T02:17:41.004Z,10.17
2018-09-14T02:18:51.310Z,10.2
2018-09-14T02:20:01.257Z,10.2
2018-09-14T02:21:11.185Z,10.15
2018-09-14T02:22:21.399Z,10.2
2018-09-14T02:23:31.605Z,10.23
2018-09-14T02:24:42.126Z,10.18
2018-09-14T02:25:52.058Z,10.15
2018-09-14T02:27:02.289Z,10.13
2018-09-14T02:28:11.943Z,10.15
2018-09-14T02:29:22.156Z,10.24
2018-09-14T02:30:31.824Z,10.15
2018-09-14T02:31:42.056Z,10.07
2018-09-14T02:32:52.017Z,10.03
2018-09-14T02:34:02.276Z,10
2018-09-14T02:35:12.274Z,10.05
2018-09-14T02:36:22.540Z,10.03
2018-09-14T02:37:32.195Z,10.05
2018-09-14T02:38:42.414Z,10.02
2018-09-14T02:39:52.359Z,10.05
2018-09-14T02:41:02.010Z,9.99
2018-09-14T02:42:12.527Z,10
2018-09-14T02:43:22.613Z,10.03
2018-09-14T02:44:32.261Z,9.97
2018-09-14T02:45:42.470Z,9.99
2018-09-14T02:46:52.689Z,10
2018-09-14T02:48:04.908Z,9.97
2018-09-14T02:49:14.834Z,9.92
2018-09-14T02:50:24.766Z,9.91
2018-09-14T02:51:34.982Z,9.87
2018-09-14T02:52:44.924Z,9.85
2018-09-14T02:53:55.144Z,9.8
2018-09-14T02:55:04.792Z,9.8
2018-09-14T02:56:14.450Z,9.74
2018-09-14T02:57:24.664Z,9.87
2018-09-14T02:58:34.325Z,9.81
2018-09-14T02:59:46.542Z,9.82
2018-09-14T03:00:56.758Z,9.76
2018-09-14T03:02:06.693Z,9.69
2018-09-14T03:03:16.621Z,9.63
2018-09-14T03:04:26.552Z,9.72
2018-09-14T03:05:36.772Z,9.67
2018-09-14T03:06:47.005Z,9.67
2018-09-14T03:07:57.229Z,9.62
2018-09-14T03:09:06.878Z,9.63
2018-09-14T03:10:17.086Z,9.55
2018-09-14T03:11:26.792Z,9.58
2018-09-14T03:12:37.068Z,9.63
2018-09-14T03:13:47.283Z,9.62
2018-09-14T03:14:57.210Z,9.52
2018-09-14T03:16:06.595Z,9.55
2018-09-14T03:17:16.804Z,9.56
2018-09-14T03:18:26.737Z,9.42
2018-09-14T03:19:36.969Z,9.58
2018-09-14T03:20:46.631Z,9.47
2018-09-14T03:21:56.846Z,9.42
2018-09-14T03:23:06.825Z,9.4
2018-09-14T03:24:17.040Z,9.37
2018-09-14T03:25:26.978Z,9.39
2018-09-14T03:26:37.201Z,9.42
2018-09-14T03:27:47.416Z,9.33
2018-09-14T03:28:57.677Z,9.34
2018-09-14T03:30:07.656Z,9.36
2018-09-14T03:31:17.879Z,9.36
2018-09-14T03:32:28.169Z,9.34
2018-09-14T03:33:38.113Z,9.34
2018-09-14T03:34:48.386Z,9.24
2018-09-14T03:35:58.313Z,9.19
2018-09-14T03:37:08.247Z,9.18
2018-09-14T03:38:18.466Z,9.19
2018-09-14T03:39:28.975Z,9.13
2018-09-14T03:40:38.400Z,9.18
2018-09-14T03:41:48.334Z,9.18
2018-09-14T03:42:57.984Z,9.16
2018-09-14T03:44:07.360Z,9.16
2018-09-14T03:45:17.624Z,9.22
2018-09-14T03:46:27.272Z,9.11
2018-09-14T03:47:37.205Z,9.09
2018-09-14T03:48:47.136Z,9.09
2018-09-14T03:49:57.068Z,9.05
2018-09-14T03:51:07.001Z,9.08
2018-09-14T03:52:17.263Z,9.05
2018-09-14T03:53:27.484Z,9.03
2018-09-14T03:54:37.130Z,9.05
2018-09-14T03:55:47.060Z,9.05
2018-09-14T03:56:57.275Z,9
2018-09-14T03:58:07.076Z,9
2018-09-14T03:59:17.293Z,8.97
2018-09-14T04:00:27.225Z,8.95
2018-09-14T04:01:36.593Z,8.99
2018-09-14T04:02:46.516Z,9
2018-09-14T04:03:56.500Z,9.03
2018-09-14T04:05:06.449Z,9.02
2018-09-14T04:06:16.728Z,9.02
2018-09-14T04:07:26.993Z,9
2018-09-14T04:08:36.653Z,9
2018-09-14T04:09:46.360Z,8.97
2018-09-14T04:10:56.022Z,8.96
2018-09-14T04:12:06.238Z,9.02
2018-09-14T04:13:16.166Z,9.05
2018-09-14T04:14:26.095Z,9.11
2018-09-14T04:15:36.352Z,9.08
2018-09-14T04:16:46.564Z,9.12
2018-09-14T04:17:55.930Z,9.19
2018-09-14T04:19:05.865Z,9.19
2018-09-14T04:20:15.540Z,9.13
2018-09-14T04:21:25.635Z,9.24
2018-09-14T04:22:35.570Z,9.33
2018-09-14T04:23:45.889Z,9.31
2018-09-14T04:24:55.832Z,9.29
2018-09-14T04:26:05.823Z,9.33
2018-09-14T04:27:16.079Z,9.44
2018-09-14T04:28:26.012Z,9.42
2018-09-14T04:29:36.243Z,9.37
2018-09-14T04:30:46.453Z,9.42
2018-09-14T04:31:56.386Z,9.44
2018-09-14T04:33:06.660Z,9.4
2018-09-14T04:34:16.595Z,9.39
2018-09-14T04:35:26.261Z,9.44
2018-09-14T04:36:36.192Z,9.37
2018-09-14T04:37:46.408Z,9.45
2018-09-14T04:38:56.736Z,9.45
2018-09-14T04:40:06.388Z,9.4
2018-09-14T04:41:15.764Z,9.42
2018-09-14T04:42:25.709Z,9.44
2018-09-14T04:43:35.644Z,9.49
2018-09-14T04:44:45.624Z,9.47
2018-09-14T04:45:55.561Z,9.47
2018-09-14T04:47:05.513Z,9.45
2018-09-14T04:48:15.824Z,9.51
2018-09-14T04:49:26.157Z,9.54
2018-09-14T04:50:36.425Z,9.51
2018-09-14T04:51:46.367Z,9.52
2018-09-14T04:52:56.307Z,9.51
2018-09-14T04:54:06.555Z,9.56
2018-09-14T04:55:16.507Z,9.49
2018-09-14T04:56:26.518Z,9.51
2018-09-14T04:57:36.720Z,9.55
2018-09-14T04:58:46.739Z,9.59
2018-09-14T04:59:56.950Z,9.56
2018-09-14T05:01:06.893Z,9.52
2018-09-14T05:02:16.880Z,9.58
2018-09-14T05:03:27.343Z,9.62
2018-09-14T05:04:36.997Z,9.64
2018-09-14T05:05:47.208Z,9.67
2018-09-14T05:06:57.419Z,9.67
2018-09-14T05:08:09.405Z,9.64
2018-09-14T05:09:19.335Z,9.67
2018-09-14T05:10:29.546Z,9.76
2018-09-14T05:11:39.480Z,9.77
2018-09-14T05:12:49.415Z,9.81
2018-09-14T05:13:59.503Z,9.8
2018-09-14T05:15:09.886Z,9.87
2018-09-14T05:16:20.097Z,9.91
2018-09-14T05:17:30.024Z,9.91
2018-09-14T05:18:40.240Z,9.92
2018-09-14T05:19:50.267Z,9.92
2018-09-14T05:21:00.476Z,9.91
2018-09-14T05:22:10.687Z,10
2018-09-14T05:23:20.625Z,9.99
2018-09-14T05:24:31.015Z,10.03
2018-09-14T05:25:40.869Z,10.1
2018-09-14T05:26:51.087Z,10.13
2018-09-14T05:28:01.023Z,10.1
2018-09-14T05:29:11.236Z,10.09
2018-09-14T05:30:21.455Z,10.2
2018-09-14T05:31:31.431Z,10.17
2018-09-14T05:32:41.369Z,10.2
2018-09-14T05:33:51.583Z,10.15
2018-09-14T05:35:01.515Z,10.15
2018-09-14T05:36:11.442Z,10.28
2018-09-14T05:37:21.420Z,10.28
2018-09-14T05:38:31.526Z,10.34
2018-09-14T05:39:41.736Z,10.34
2018-09-14T05:40:51.672Z,10.41
2018-09-14T05:42:01.915Z,10.45
2018-09-14T05:43:11.864Z,10.42
2018-09-14T05:44:21.791Z,10.46
2018-09-14T05:45:31.757Z,10.49
2018-09-14T05:46:41.481Z,10.43
2018-09-14T05:47:51.747Z,10.39
2018-09-14T05:49:01.176Z,10.49
2018-09-14T05:50:11.110Z,10.42
2018-09-14T05:51:20.477Z,10.43
2018-09-14T05:52:30.692Z,10.53
2018-09-14T05:53:40.625Z,10.51
2018-09-14T05:54:50.896Z,10.53
2018-09-14T05:56:00.551Z,10.53
2018-09-14T05:57:09.921Z,10.49
2018-09-14T05:58:20.135Z,10.49
2018-09-14T05:59:29.784Z,10.55
2018-09-14T06:00:40.067Z,10.59
2018-09-14T06:01:49.719Z,10.59
2018-09-14T06:02:59.937Z,10.58
2018-09-14T06:04:09.875Z,10.58
2018-09-14T06:05:20.088Z,10.62
2018-09-14T06:06:30.092Z,10.64
2018-09-14T06:07:40.608Z,10.65
2018-09-14T06:08:50.826Z,10.68
2018-09-14T06:10:01.042Z,10.69
2018-09-14T06:11:10.975Z,10.75
2018-09-14T06:12:20.954Z,10.69
2018-09-14T06:13:31.161Z,10.68
2018-09-14T06:14:41.370Z,10.67
2018-09-14T06:15:51.020Z,10.69
2018-09-14T06:17:01.487Z,10.76
2018-09-14T06:18:11.716Z,10.76
2018-09-14T06:19:21.927Z,10.75
2018-09-14T06:20:31.577Z,10.83
2018-09-14T06:21:41.787Z,10.67
2018-09-14T06:22:52.162Z,10.79
2018-09-14T06:24:01.993Z,10.79
2018-09-14T06:25:12.208Z,10.82
2018-09-14T06:26:22.432Z,10.84
2018-09-14T06:27:32.367Z,10.82
2018-09-14T06:28:41.735Z,10.84
2018-09-14T06:29:51.712Z,10.84
2018-09-14T06:31:01.645Z,10.83
2018-09-14T06:32:11.866Z,10.89
2018-09-14T06:33:22.075Z,10.92
2018-09-14T06:34:32.304Z,10.89
2018-09-14T06:35:42.006Z,10.87
2018-09-14T06:36:51.660Z,10.94
2018-09-14T06:38:01.598Z,10.89
2018-09-14T06:39:11.889Z,10.86
2018-09-14T06:40:22.108Z,10.9
2018-09-14T06:41:31.248Z,10.89
2018-09-14T06:42:40.906Z,10.92
2018-09-14T06:43:51.119Z,10.84
2018-09-14T06:45:01.208Z,10.89
2018-09-14T06:46:11.423Z,10.89
2018-09-14T06:47:21.688Z,10.92
2018-09-14T06:48:31.060Z,10.83
2018-09-14T06:49:41.395Z,10.89
2018-09-14T06:50:51.588Z,10.87
2018-09-14T06:52:02.093Z,10.92
2018-09-14T06:53:11.922Z,10.92
2018-09-14T06:54:22.312Z,10.94
2018-09-14T06:55:32.258Z,10.94
2018-09-14T06:56:41.906Z,10.94
2018-09-14T06:57:51.555Z,10.94
2018-09-14T06:59:01.252Z,10.89
2018-09-14T07:00:11.430Z,10.97
2018-09-14T07:01:22.142Z,10.83
2018-09-14T07:02:31.801Z,10.97
2018-09-14T07:03:42.008Z,11
2018-09-14T07:04:51.992Z,10.94
2018-09-14T07:06:02.202Z,10.98
2018-09-14T07:07:12.102Z,10.95
2018-09-14T07:08:22.233Z,11.01
2018-09-14T07:09:32.089Z,11.07
2018-09-14T07:10:42.041Z,11
2018-09-14T07:11:51.888Z,11.04
2018-09-14T07:13:01.801Z,11.01
2018-09-14T07:14:12.046Z,11.1
2018-09-14T07:15:21.906Z,11.04
2018-09-14T07:16:32.081Z,11.07
2018-09-14T07:17:42.213Z,11.12
2018-09-14T07:18:52.344Z,11.19
2018-09-14T07:20:02.467Z,11.25
2018-09-14T07:21:11.764Z,11.27
2018-09-14T07:22:21.869Z,11.34
2018-09-14T07:23:32.350Z,11.44
2018-09-14T07:24:42.978Z,11.51
2018-09-14T07:25:53.579Z,11.49
2018-09-14T07:27:03.492Z,11.53
2018-09-14T07:28:13.466Z,11.51
2018-09-14T07:29:23.176Z,11.45
2018-09-14T07:30:32.792Z,11.56
2018-09-14T07:31:42.677Z,11.59
2018-09-14T07:32:53.284Z,11.53
2018-09-14T07:34:03.236Z,11.51
2018-09-14T07:35:12.816Z,11.56
2018-09-14T07:36:22.756Z,11.55
2018-09-14T07:37:32.368Z,11.55
2018-09-14T07:38:42.491Z,11.59
2018-09-14T07:39:52.120Z,11.58
2018-09-14T07:41:02.247Z,11.62
2018-09-14T07:42:12.100Z,11.6
2018-09-14T07:43:21.675Z,11.63
2018-09-14T07:44:31.546Z,11.63
2018-09-14T07:45:41.733Z,11.67
2018-09-14T07:46:51.614Z,11.65
2018-09-14T07:48:01.190Z,11.68
2018-09-14T07:49:11.103Z,11.74
2018-09-14T07:50:21.228Z,11.73
2018-09-14T07:51:31.085Z,11.78
2018-09-14T07:52:40.937Z,11.83
2018-09-14T07:53:50.513Z,11.85
2018-09-14T07:55:00.365Z,11.93
2018-09-14T07:56:10.218Z,11.93
2018-09-14T07:57:20.401Z,12.05
2018-09-14T07:58:29.980Z,11.93
2018-09-14T07:59:40.137Z,12.11
2018-09-14T08:00:50.265Z,12.14
2018-09-14T08:02:00.386Z,12.2
2018-09-14T08:03:10.012Z,12.14
2018-09-14T08:04:20.151Z,12.21
2018-09-14T08:05:29.728Z,12.21
2018-09-14T08:06:39.857Z,12.39
2018-09-14T08:07:49.996Z,12.35
2018-09-14T08:09:00.128Z,12.39
2018-09-14T08:10:09.707Z,12.3
2018-09-14T08:11:19.559Z,12.39
2018-09-14T08:12:29.695Z,12.37
2018-09-14T08:13:39.962Z,12.32
2018-09-14T08:14:49.810Z,12.37
2018-09-14T08:15:59.676Z,12.44
2018-09-14T08:17:09.268Z,12.47
2018-09-14T08:18:19.119Z,12.5
2018-09-14T08:19:29.249Z,12.5
2018-09-14T08:20:38.832Z,12.5
2018-09-14T08:21:49.290Z,12.5
2018-09-14T08:22:59.870Z,12.5
2018-09-14T08:24:09.728Z,12.51
2018-09-14T08:25:19.857Z,12.55
2018-09-14T08:26:29.978Z,12.57
2018-09-14T08:27:39.556Z,12.54
2018-09-14T08:28:49.409Z,12.57
2018-09-14T08:29:59.537Z,12.66
2018-09-14T08:31:09.389Z,12.66
2018-09-14T08:32:19.626Z,12.7
2018-09-14T08:33:29.283Z,12.8
2018-09-14T08:34:38.864Z,12.8
2018-09-14T08:35:49.003Z,12.8
2018-09-14T08:36:59.136Z,12.73
2018-09-14T08:38:08.990Z,12.86
2018-09-14T08:39:19.121Z,12.81
2018-09-14T08:40:28.973Z,12.9
2018-09-14T08:41:39.154Z,12.9
2018-09-14T08:42:49.011Z,12.95
2018-09-14T08:43:58.591Z,12.99
2018-09-14T08:45:08.721Z,13.02
2018-09-14T08:46:18.303Z,13.01
2018-09-14T08:47:27.887Z,13.01
2018-09-14T08:48:37.757Z,13.03
2018-09-14T08:49:47.613Z,13.17
2018-09-14T08:50:57.193Z,13.11
2018-09-14T08:52:06.768Z,13.08
2018-09-14T08:53:16.621Z,13.19
2018-09-14T08:54:26.810Z,13.12
2018-09-14T08:55:36.986Z,13.19
2018-09-14T08:56:47.118Z,13.26
2018-09-14T08:57:56.701Z,13.16
2018-09-14T08:59:07.055Z,13.27
2018-09-14T09:00:16.949Z,13.12
2018-09-14T09:01:27.094Z,13.13
2018-09-14T09:02:36.946Z,13.12
2018-09-14T09:03:47.202Z,13.17
2018-09-14T09:04:56.848Z,13.23
2018-09-14T09:06:06.992Z,13.19
2018-09-14T09:07:16.423Z,13.17
2018-09-14T09:08:26.983Z,13.17
2018-09-14T09:09:37.114Z,13.27
2018-09-14T09:10:46.968Z,13.36
2018-09-14T09:11:57.093Z,13.31
2018-09-14T09:13:06.940Z,13.37
2018-09-14T09:14:16.806Z,13.37
2018-09-14T09:15:26.928Z,13.36
2018-09-14T09:16:37.064Z,13.42
2018-09-14T09:17:47.186Z,13.28
2018-09-14T09:18:57.240Z,13.33
2018-09-14T09:20:07.383Z,13.26
2018-09-14T09:21:17.661Z,13.31
2018-09-14T09:22:27.860Z,13.37
2018-09-14T09:23:38.133Z,13.37
2018-09-14T09:24:48.035Z,13.45
2018-09-14T09:25:57.884Z,13.36
2018-09-14T09:27:07.465Z,13.54
2018-09-14T09:28:17.331Z,13.6
2018-09-14T09:29:27.312Z,13.6
2018-09-14T09:30:37.027Z,13.64
2018-09-14T09:31:46.879Z,13.62
2018-09-14T09:32:56.740Z,13.6
2018-09-14T09:34:06.332Z,13.58
2018-09-14T09:35:16.461Z,13.62
2018-09-14T09:36:26.592Z,13.67
2018-09-14T09:37:36.720Z,13.61
2018-09-14T09:38:46.849Z,13.6
2018-09-14T09:39:56.987Z,13.64
2018-09-14T09:41:06.571Z,13.61
2018-09-14T09:42:16.652Z,13.6
2018-09-14T09:43:27.335Z,13.62
2018-09-14T09:44:38.193Z,13.79
2018-09-14T09:45:48.048Z,13.85
2018-09-14T09:46:58.197Z,13.82
2018-09-14T09:48:08.326Z,13.97
2018-09-14T09:49:18.181Z,14.08
2018-09-14T09:50:27.764Z,14.23
2018-09-14T09:51:37.627Z,14.33
2018-09-14T09:52:47.486Z,14.33
2018-09-14T09:53:57.343Z,14.28
2018-09-14T09:55:07.505Z,14.36
2018-09-14T09:56:17.636Z,14.34
2018-09-14T09:57:27.502Z,14.4
2018-09-14T09:58:37.360Z,14.38
2018-09-14T09:59:47.213Z,14.43
2018-09-14T10:00:57.064Z,14.33
2018-09-14T10:02:06.689Z,14.44
2018-09-14T10:03:16.539Z,14.34
2018-09-14T10:04:26.665Z,14.36
2018-09-14T10:05:36.579Z,14.31
2018-09-14T10:06:46.707Z,14.37
2018-09-14T10:07:56.840Z,14.45
2018-09-14T10:09:06.969Z,14.37
2018-09-14T10:10:17.104Z,14.37
2018-09-14T10:11:27.232Z,14.3
2018-09-14T10:12:37.096Z,14.4
2018-09-14T10:13:46.956Z,14.38
2018-09-14T10:14:57.239Z,14.36
2018-09-14T10:16:07.255Z,14.51
2018-09-14T10:17:17.388Z,14.48
2018-09-14T10:18:27.522Z,14.58
2018-09-14T10:19:37.651Z,14.58
2018-09-14T10:20:47.347Z,14.53
2018-09-14T10:21:57.970Z,14.55
2018-09-14T10:23:08.108Z,14.55
2018-09-14T10:24:17.962Z,14.48
2018-09-14T10:25:27.815Z,14.58
2018-09-14T10:26:38.032Z,14.51
2018-09-14T10:27:47.920Z,14.51
2018-09-14T10:28:57.547Z,14.48
2018-09-14T10:30:07.957Z,14.37
2018-09-14T10:31:17.818Z,14.4
2018-09-14T10:32:27.401Z,14.38
2018-09-14T10:33:37.535Z,14.48
2018-09-14T10:34:47.667Z,14.55
2018-09-14T10:35:57.802Z,14.61
2018-09-14T10:37:07.682Z,14.62
2018-09-14T10:38:17.639Z,14.68
2018-09-14T10:39:27.222Z,14.85
2018-09-14T10:40:37.541Z,14.94
2018-09-14T10:41:47.866Z,15.19
2018-09-14T10:42:58.341Z,15.23
2018-09-14T10:44:08.278Z,15.51
2018-09-14T10:45:18.647Z,15.48
2018-09-14T10:46:29.090Z,15.36
2018-09-14T10:47:38.665Z,15.3
2018-09-14T10:48:48.658Z,15.47
2018-09-14T10:49:58.836Z,15.57
2018-09-14T10:51:09.227Z,15.65
2018-09-14T10:52:19.184Z,15.69
2018-09-14T10:53:29.450Z,15.73
2018-09-14T10:54:39.328Z,15.78
2018-09-14T10:55:49.642Z,15.84
2018-09-14T10:56:59.776Z,15.91
2018-09-14T10:58:09.361Z,16.02
2018-09-14T10:59:19.489Z,16.21
2018-09-14T11:00:29.347Z,16.08
2018-09-14T11:01:39.201Z,16.1
2018-09-14T11:02:49.330Z,16.28
2018-09-14T11:03:59.188Z,16.43
2018-09-14T11:05:08.771Z,16.69
2018-09-14T11:06:18.633Z,17.05
2018-09-14T11:07:28.488Z,17.37
2018-09-14T11:08:38.622Z,17.68
2018-09-14T11:09:48.274Z,17.94
2018-09-14T11:10:58.491Z,17.87
2018-09-14T11:12:08.347Z,17.63
2018-09-14T11:13:17.942Z,17.75
2018-09-14T11:14:27.529Z,17.8
2018-09-14T11:15:37.395Z,18.02
2018-09-14T11:16:47.536Z,18.06
2018-09-14T11:17:57.680Z,18.41
2018-09-14T11:19:08.035Z,18.64
2018-09-14T11:20:18.254Z,18.78
2018-09-14T11:21:28.402Z,18.46
2018-09-14T11:22:38.270Z,18.49
2018-09-14T11:23:47.581Z,18.53
2018-09-14T11:24:58.000Z,18.7
2018-09-14T11:26:08.530Z,18.46
2018-09-14T11:27:18.689Z,18.58
2018-09-14T11:28:28.824Z,18.58
2018-09-14T11:29:38.962Z,18.78
2018-09-14T11:30:49.103Z,18.78
2018-09-14T11:31:58.690Z,18.89
2018-09-14T11:33:08.549Z,18.73
2018-09-14T11:34:18.728Z,18.6
2018-09-14T11:35:28.910Z,18.34
2018-09-14T11:36:39.052Z,18.41
2018-09-14T11:37:48.712Z,18.71
2018-09-14T11:38:59.474Z,18.86
2018-09-14T11:40:09.332Z,19
2018-09-14T11:41:18.920Z,19.23
2018-09-14T11:42:29.052Z,19.38
2018-09-14T11:43:38.637Z,19.47
2018-09-14T11:44:48.495Z,19.47
2018-09-14T11:45:58.213Z,19.57
2018-09-14T11:47:08.543Z,19.35
2018-09-14T11:48:18.417Z,19.52
2018-09-14T11:49:28.279Z,19.12
2018-09-14T11:50:38.478Z,19.24
2018-09-14T11:51:48.615Z,19.38
2018-09-14T11:52:58.488Z,19.42
2018-09-14T11:54:08.915Z,19.53
2018-09-14T11:55:19.247Z,19.67
2018-09-14T11:56:29.107Z,19.67
2018-09-14T11:57:39.244Z,19.85
2018-09-14T11:58:48.831Z,20.03
2018-09-14T11:59:58.430Z,19.93
2018-09-14T12:01:08.576Z,20.44
2018-09-14T12:02:18.181Z,20.7
2018-09-14T12:03:28.061Z,20.8
2018-09-14T12:04:38.195Z,21.05
2018-09-14T12:05:48.343Z,20.55
2018-09-14T12:06:58.478Z,20.32
2018-09-14T12:08:08.617Z,19.67
2018-09-14T12:09:18.751Z,19.24
2018-09-14T12:10:28.886Z,19.12
2018-09-14T12:11:38.745Z,19.04
2018-09-14T12:12:48.605Z,19.09
2018-09-14T12:13:58.779Z,19.24
2018-09-14T12:15:08.434Z,19.11
2018-09-14T12:16:18.578Z,19.11
2018-09-14T12:17:28.716Z,19.07
2018-09-14T12:18:38.304Z,19
2018-09-14T12:19:48.498Z,18.85
2018-09-14T12:20:58.365Z,18.92
2018-09-14T12:22:08.401Z,18.81
2018-09-14T12:23:18.381Z,18.85
2018-09-14T12:24:27.694Z,18.88
2018-09-14T12:25:37.557Z,18.85
2018-09-14T12:26:47.701Z,18.66
2018-09-14T12:27:57.565Z,18.55
2018-09-14T12:29:07.434Z,18.46
2018-09-14T12:30:16.744Z,18.39
2018-09-14T12:31:26.931Z,18.28
2018-09-14T12:32:36.797Z,18.27
2018-09-14T12:33:46.934Z,18.46
2018-09-14T12:34:56.796Z,18.41
2018-09-14T12:36:06.106Z,18.52
2018-09-14T12:37:16.397Z,18.49
2018-09-14T12:38:26.535Z,18.63
2018-09-14T12:39:36.667Z,18.55
2018-09-14T12:40:46.805Z,18.49
2018-09-14T12:41:56.661Z,18.41
2018-09-14T12:43:06.293Z,18.52
2018-09-14T12:44:16.151Z,18.48
2018-09-14T12:45:25.750Z,18.48
2018-09-14T12:46:35.886Z,18.53
2018-09-14T12:47:46.020Z,18.49
2018-09-14T12:48:55.761Z,18.64
2018-09-14T12:50:05.912Z,18.49
2018-09-14T12:51:15.773Z,18.48
2018-09-14T12:52:25.636Z,18.55
2018-09-14T12:53:34.943Z,18.52
2018-09-14T12:54:45.134Z,18.43
2018-09-14T12:55:54.791Z,18.53
2018-09-14T12:57:04.648Z,18.33
2018-09-14T12:58:14.779Z,18.09
2018-09-14T12:59:24.917Z,18.03
2018-09-14T13:00:34.550Z,17.91
2018-09-14T13:01:44.682Z,17.97
2018-09-14T13:02:54.542Z,17.8
2018-09-14T13:04:04.137Z,17.8
2018-09-14T13:05:14.397Z,17.66
2018-09-14T13:06:24.582Z,17.6
2018-09-14T13:07:34.169Z,17.37
2018-09-14T13:08:44.033Z,17.22
2018-09-14T13:09:53.903Z,17.07
2018-09-14T13:11:04.034Z,17.19
2018-09-14T13:12:14.268Z,17.23
2018-09-14T13:13:24.405Z,17.13
2018-09-14T13:14:34.047Z,17.14
2018-09-14T13:15:44.079Z,17.04
2018-09-14T13:16:53.936Z,17.04
2018-09-14T13:18:04.120Z,17.01
2018-09-14T13:19:14.257Z,16.84
2018-09-14T13:20:24.118Z,16.79
2018-09-14T13:21:33.971Z,16.59
2018-09-14T13:22:43.832Z,16.65
2018-09-14T13:23:53.690Z,16.68
2018-09-14T13:25:03.270Z,16.69
2018-09-14T13:26:13.126Z,16.5
2018-09-14T13:27:22.710Z,16.62
2018-09-14T13:28:32.292Z,16.57
2018-09-14T13:29:42.487Z,16.54
2018-09-14T13:30:52.620Z,16.41
2018-09-14T13:32:02.753Z,16.29
2018-09-14T13:33:12.340Z,16.21
2018-09-14T13:34:22.478Z,16.12
2018-09-14T13:35:32.384Z,16.1
2018-09-14T13:36:42.251Z,16.18
2018-09-14T13:37:52.106Z,16.17
2018-09-14T13:39:01.966Z,16.02
2018-09-14T13:40:11.886Z,15.96
2018-09-14T13:41:22.129Z,16.05
2018-09-14T13:42:31.725Z,15.92
2018-09-14T13:43:41.587Z,16.03
2018-09-14T13:44:51.925Z,16.1
2018-09-14T13:46:01.737Z,16.17
2018-09-14T13:47:11.324Z,16.16
2018-09-14T13:48:21.454Z,16.25
2018-09-14T13:49:31.586Z,16.28
2018-09-14T13:50:41.734Z,16.31
2018-09-14T13:51:51.317Z,16.28
2018-09-14T13:53:01.504Z,16.28
2018-09-14T13:54:11.096Z,16.22
2018-09-14T13:55:21.235Z,16.44
2018-09-14T13:56:31.374Z,16.4
2018-09-14T13:57:41.509Z,16.25
2018-09-14T13:58:51.471Z,16.39
2018-09-14T14:00:01.383Z,16.28
2018-09-14T14:01:10.765Z,16.32
2018-09-14T14:02:21.077Z,16.18
2018-09-14T14:03:30.935Z,16.08
2018-09-14T14:04:41.126Z,16.06
2018-09-14T14:05:50.981Z,16.18
2018-09-14T14:07:01.163Z,16.16
2018-09-14T14:08:11.028Z,16.25
2018-09-14T14:09:21.172Z,16.36
2018-09-14T14:10:30.780Z,16.41
2018-09-14T14:11:40.920Z,16.28
2018-09-14T14:12:51.054Z,16.28
2018-09-14T14:14:00.920Z,16.18
2018-09-14T14:15:11.057Z,16.21
2018-09-14T14:16:21.316Z,16.16
2018-09-14T14:17:31.886Z,16.22
2018-09-14T14:18:42.300Z,16.24
2018-09-14T14:19:52.448Z,16.25
2018-09-14T14:21:02.713Z,16.29
2018-09-14T14:22:13.119Z,16.5
2018-09-14T14:23:23.257Z,16.46
2018-09-14T14:24:33.127Z,16.57
2018-09-14T14:25:42.980Z,16.64
2018-09-14T14:26:53.117Z,16.69
2018-09-14T14:28:03.314Z,16.61
2018-09-14T14:29:13.455Z,16.64
2018-09-14T14:30:23.317Z,16.5
2018-09-14T14:31:33.454Z,16.72
2018-09-14T14:32:43.314Z,16.66
2018-09-14T14:33:53.247Z,16.72
2018-09-14T14:35:02.901Z,16.84
2018-09-14T14:36:12.764Z,17.1
2018-09-14T14:37:22.629Z,17.16
2018-09-14T14:38:32.767Z,17.32
2018-09-14T14:39:42.679Z,17.34
2018-09-14T14:40:52.812Z,17.5
2018-09-14T14:42:02.179Z,17.68
2018-09-14T14:43:10.931Z,17.73
2018-09-14T14:44:21.064Z,17.86
2018-09-14T14:45:31.262Z,18.18
2018-09-14T14:46:41.426Z,18.19
2018-09-14T14:47:51.568Z,18.03
2018-09-14T14:49:01.711Z,18.3
2018-09-14T14:50:11.572Z,18.3
2018-09-14T14:51:21.759Z,18.36
2018-09-14T14:52:31.899Z,18.53
2018-09-14T14:53:42.034Z,18.48
2018-09-14T14:54:52.167Z,18.34
2018-09-14T14:56:02.598Z,18.16
2018-09-14T14:57:12.672Z,18.05
2018-09-14T14:58:22.275Z,17.79
2018-09-14T14:59:32.544Z,17.84
2018-09-14T15:00:42.800Z,17.73
2018-09-14T15:01:52.939Z,17.59
2018-09-14T15:03:03.133Z,17.52
2018-09-14T15:04:13.018Z,17.42
2018-09-14T15:05:23.151Z,17.49
2018-09-14T15:06:33.016Z,17.46
2018-09-14T15:07:42.869Z,17.34
2018-09-14T15:08:53.052Z,17.38
2018-09-14T15:10:02.919Z,17.22